Terminal Aerodrome Forecast
Issued by NWS Paducah, KY

Home | Current Version | Previous Version | Text Only | Print | Product List | Glossary On
Versions: 1 2 3 4 5 6 7 8 9 10 11 12 13 14 15 16 17
569
FTUS43 KPAH 240520
TAFEVV
TAF
KEVV 240520Z 2406/2506 00000KT P6SM FEW060 BKN250
     FM241400 20005KT P6SM FEW050 BKN250
     FM241700 20008KT P6SM SCT040 BKN090
     FM250000 16003KT P6SM SCT050=

USA.gov is the U.S. government's official web portal to all federal, state and local government web resources and services.